Latest Weather Observations for Bankstown

IDN60901

Issued at 12:51 pm EST Saturday 1 October 2022 (issued every 10 minutes, with the page automatically refreshed every 10 minutes)

About weather observations | Map of Sydney area stations | Latest observations for Sydney area | Other Formats
Station Details ID: 066137 Name: BANKSTOWN AIRPORT AWS Lat: -33.92 Lon: 150.98 Height: 7.2 m
Data from the previous 72 hours. | See also: Recent months at Bankstown
Date/Time
EST
Temp
°C
App
Temp
°C
Dew
Point
°C
Rel
Hum
%
Delta-T
°C
Wind Press
QNH
hPa
Press
MSL
hPa
Rain since
9am
mm
Dir  Spd
km/h
Gust
km/h
Spd
kts
Gust
kts
01/12:30pm 17.1 13.0 8.5 57 4.4 E 20 44 11 24 1022.8 1022.8 0.0
01/12:00pm 17.3 11.6 8.2 55 4.6 ESE 28 33 15 18 1023.2 1023.2 0.0
01/11:30am 16.8 12.2 8.0 56 4.5 SE 22 30 12 16 1023.6 1023.6 0.0
01/11:00am 16.7 13.3 9.1 61 3.9 SSE 17 26 9 14 1023.9 1023.9 0.0
01/10:30am 16.3 11.9 7.5 56 4.4 SSE 20 28 11 15 1024.1 1024.1 0.0
01/10:00am 16.0 12.1 9.4 65 3.4 SSE 20 28 11 15 1024.3 1024.3 0.0
01/09:30am 15.3 13.3 10.1 71 2.7 SSW 11 15 6 8 1024.6 1024.6 0.0
01/09:00am 13.7 11.1 10.7 82 1.6 SSW 15 22 8 12 1024.7 1024.7 11.4
01/08:30am 14.7 12.4 10.5 76 2.2 SW 13 19 7 10 1024.6 1024.6 11.2
01/08:00am 13.9 11.6 10.3 79 1.9 SW 13 17 7 9 1024.5 1024.5 11.2
01/07:30am 13.0 10.7 10.5 85 1.3 SW 13 19 7 10 1024.4 1024.4 11.2
01/07:00am 12.5 10.6 10.4 87 1.1 SW 11 15 6 8 1024.3 1024.3 11.2
01/06:30am 12.2 10.7 10.6 90 0.8 SW 9 13 5 7 1024.2 1024.2 11.2
01/06:00am 11.7 10.1 10.3 91 0.7 WSW 9 13 5 7 1024.1 1024.1 11.2
01/05:30am 11.7 10.2 10.4 92 0.7 WSW 9 13 5 7 1023.9 1023.9 11.2
01/05:00am 11.6 10.4 10.2 91 0.7 WSW 7 11 4 6 1023.8 1023.8 11.2
01/04:30am 11.9 10.6 10.1 89 0.9 SW 7 11 4 6 1023.6 1023.6 11.2
01/04:00am 12.3 10.4 10.5 89 0.9 SW 11 15 6 8 1023.5 1023.5 11.2
01/03:30am 12.5 11.4 10.7 89 0.9 W 7 11 4 6 1023.6 1023.6 11.2
01/03:00am 12.4 11.0 10.8 90 0.8 SW 9 13 5 7 1023.7 1023.7 11.2
01/02:30am 12.3 10.5 10.9 91 0.7 SW 11 17 6 9 1023.8 1023.8 11.2
01/02:00am 12.2 10.3 10.6 90 0.8 SW 11 15 6 8 1024.0 1024.0 11.2
01/01:30am 12.2 12.4 10.6 90 0.8 CALM 0 2 0 1 1024.2 1024.2 11.2
01/01:00am 12.3 12.5 10.7 90 0.8 CALM 0 0 0 0 1024.4 1024.4 11.2
01/12:30am 12.5 12.7 10.6 88 1.0 CALM 0 0 0 0 1024.5 1024.5 11.2
01/12:00am 13.4 13.0 9.8 79 1.8 SE 2 7 1 4 1024.8 1024.8 11.2
 
Date/Time
EST
Temp
°C
App
Temp
°C
Dew
Point
°C
Rel
Hum
%
Delta-T
°C
Wind Press
QNH
hPa
Press
MSL
hPa
Rain since
9am
mm
Dir  Spd
km/h
Gust
km/h
Spd
kts
Gust
kts
30/11:30pm 13.8 12.1 9.8 77 2.1 SE 9 13 5 7 1024.9 1024.9 11.2
30/11:00pm 13.8 12.1 9.8 77 2.0 SSE 9 13 5 7 1024.9 1024.9 11.2
30/10:30pm 14.3 11.9 10.1 76 2.2 ESE 13 17 7 9 1024.8 1024.8 11.2
30/10:00pm 14.7 12.0 10.5 76 2.2 SE 15 19 8 10 1024.8 1024.8 11.2
30/09:30pm 14.8 12.1 10.4 75 2.3 SE 15 22 8 12 1025.0 1025.0 11.2
30/09:00pm 14.6 12.4 10.8 78 2.0 SSE 13 17 7 9 1025.1 1025.1 11.2
30/08:30pm 14.6 12.1 11.0 79 1.9 SE 15 24 8 13 1025.0 1025.0 11.2
30/08:00pm 14.1 12.7 12.3 89 1.0 SSE 11 17 6 9 1025.1 1025.1 11.2
30/07:30pm 13.6 12.8 12.8 95 0.4 SW 9 11 5 6 1025.0 1025.0 11.2
30/07:22pm 13.6 12.8 12.8 95 0.4 SW 9 13 5 7 1025.0 1025.0 11.2
30/07:00pm 13.7 11.0 12.8 94 0.5 SSE 19 28 10 15 1025.0 1025.0 10.2
30/06:38pm 14.1 12.2 13.0 93 0.6 SSW 15 33 8 18 1024.9 1024.9 4.4
30/06:30pm 14.5 13.9 13.5 94 0.6 SW 9 11 5 6 1024.7 1024.7 3.0
30/06:00pm 14.7 13.2 13.1 90 0.9 SE 13 17 7 9 1024.7 1024.7 3.0
30/05:58pm 14.8 13.3 13.2 90 0.9 SE 13 20 7 11 1024.6 1024.6 2.8
30/05:46pm 14.4 12.0 12.6 89 1.0 SSE 17 26 9 14 1024.5 1024.5 2.8
30/05:30pm 14.9 13.8 13.1 89 1.0 SSW 11 13 6 7 1024.4 1024.4 1.8
30/05:00pm 15.2 12.9 13.1 87 1.2 SSE 17 22 9 12 1024.4 1024.4 1.8
30/04:30pm 14.7 12.4 12.9 89 1.0 S 17 22 9 12 1024.2 1024.2 1.8
30/04:15pm 14.8 10.0 12.8 88 1.1 SE 30 41 16 22 1024.2 1024.2 1.0
30/04:00pm 17.4 13.4 10.3 63 3.8 SSE 22 33 12 18 1023.9 1023.9 0.8
30/03:30pm 18.0 13.4 11.1 64 3.7 SSE 26 35 14 19 1023.6 1023.6 0.8
30/03:00pm 18.2 13.0 11.7 66 3.5 SSE 30 37 16 20 1023.6 1023.6 0.6
30/02:30pm 17.4 12.9 12.7 74 2.6 S 28 39 15 21 1023.8 1023.8 0.6
30/02:16pm 16.3 11.0 12.5 78 2.1 SSE 32 52 17 28 1023.8 1023.8 0.6
30/02:00pm 18.4 13.1 12.4 68 3.3 S 32 43 17 23 1023.6 1023.6 0.6
30/01:38pm 18.4 13.4 12.2 67 3.4 SSE 30 52 16 28 1023.5 1023.5 0.6
30/01:30pm 18.4 12.9 10.5 60 4.2 S 30 44 16 24 1023.4 1023.4 0.6
30/01:00pm 18.3 12.6 11.1 63 3.9 SSE 32 44 17 24 1023.8 1023.8 0.6
30/12:32pm 18.4 13.3 10.5 60 4.2 S 28 46 15 25 1023.9 1023.9 0.6
30/12:30pm 18.8 14.0 11.6 63 4.0 S 28 43 15 23 1024.0 1024.0 0.6
30/12:00pm 18.4 14.4 13.1 71 3.0 S 26 39 14 21 1024.4 1024.4 0.6
30/11:30am 17.5 13.3 12.4 72 2.8 SSE 26 35 14 19 1024.5 1024.5 0.6
30/11:00am 16.3 13.9 12.7 79 2.0 S 17 28 9 15 1024.7 1024.7 0.6
30/10:30am 15.0 13.1 13.0 88 1.1 S 15 20 8 11 1025.1 1025.1 0.6
30/10:14am 15.4 11.7 12.7 84 1.5 SSW 24 35 13 19 1025.2 1025.2 0.4
30/10:00am 17.4 14.3 12.3 72 2.8 SSW 20 33 11 18 1025.0 1025.0 0.0
30/09:30am 16.0 12.8 12.0 77 2.2 S 20 32 11 17 1025.1 1025.1 0.0
30/09:00am 17.0 13.2 12.5 75 2.5 S 24 43 13 23 1025.0 1025.0 3.4
30/08:30am 16.3 13.1 11.2 72 2.7 SSW 19 35 10 19 1024.6 1024.6 3.4
30/08:00am 15.6 12.4 11.2 75 2.3 SSW 19 32 10 17 1024.4 1024.4 3.4
30/07:30am 14.9 12.9 11.5 80 1.8 SSW 13 22 7 12 1024.0 1024.0 3.4
30/07:00am 14.8 13.2 11.4 80 1.8 SW 11 19 6 10 1023.6 1023.6 3.4
30/06:30am 14.1 11.9 10.7 80 1.8 SW 13 19 7 10 1023.4 1023.4 3.4
30/06:00am 13.7 11.9 10.7 82 1.6 SW 11 17 6 9 1023.0 1023.0 3.4
30/05:30am 13.6 11.0 10.8 83 1.5 SW 15 24 8 13 1022.8 1022.8 3.4
30/05:00am 13.7 11.2 10.9 83 1.5 SW 15 26 8 14 1022.7 1022.7 3.4
30/04:30am 13.2 10.0 11.1 87 1.1 SSW 19 28 10 15 1022.4 1022.4 3.4
30/04:00am 13.7 10.2 10.9 83 1.5 SSW 20 32 11 17 1022.2 1022.2 3.2
30/03:30am 14.5 11.8 10.3 76 2.2 SSW 15 28 8 15 1022.1 1022.1 3.2
30/03:00am 14.3 11.5 10.1 76 2.2 SSW 15 22 8 12 1021.5 1021.5 3.2
30/02:30am 14.4 11.2 10.0 75 2.3 SSW 17 28 9 15 1021.6 1021.6 3.2
30/02:00am 14.5 11.7 9.9 74 2.4 SSW 15 28 8 15 1021.7 1021.7 3.2
30/01:30am 14.6 10.8 9.8 73 2.5 SSW 20 30 11 16 1021.9 1021.9 3.2
30/01:00am 14.8 11.0 9.8 72 2.6 SSW 20 33 11 18 1022.0 1022.0 3.2
30/12:30am 14.7 12.2 9.7 72 2.6 SW 13 17 7 9 1022.2 1022.2 3.2
30/12:00am 14.8 11.9 9.8 72 2.6 SSW 15 26 8 14 1022.3 1022.3 3.2
 
Date/Time
EST
Temp
°C
App
Temp
°C
Dew
Point
°C
Rel
Hum
%
Delta-T
°C
Wind Press
QNH
hPa
Press
MSL
hPa
Rain since
9am
mm
Dir  Spd
km/h
Gust
km/h
Spd
kts
Gust
kts
29/11:30pm 14.7 11.9 9.9 73 2.5 SSW 15 19 8 10 1022.5 1022.5 3.2
29/11:00pm 14.9 10.8 10.1 73 2.5 SSW 22 35 12 19 1022.6 1022.6 3.2
29/10:30pm 14.6 12.4 10.8 78 2.0 SW 13 17 7 9 1022.8 1022.8 3.2
29/10:00pm 14.5 12.5 10.1 75 2.3 SW 11 17 6 9 1022.6 1022.6 3.2
29/09:30pm 14.7 11.6 10.3 75 2.3 SSW 17 26 9 14 1022.6 1022.6 3.2
29/09:00pm 14.7 10.8 10.7 77 2.1 SSW 22 37 12 20 1022.5 1022.5 3.2
29/08:30pm 14.6 11.4 11.2 80 1.8 SSW 19 33 10 18 1022.2 1022.2 3.2
29/08:00pm 14.8 11.5 11.6 81 1.7 SSW 20 28 11 15 1022.1 1022.1 3.2
29/07:30pm 14.5 12.1 12.5 88 1.1 SSW 17 24 9 13 1021.6 1021.6 3.2
29/07:00pm 14.8 12.8 12.8 88 1.1 SSW 15 19 8 10 1021.2 1021.2 2.6
29/06:41pm 14.9 12.5 12.8 87 1.2 SSW 17 26 9 14 1020.9 1020.9 2.6
29/06:30pm 15.0 13.1 13.0 88 1.1 SSW 15 24 8 13 1020.8 1020.8 2.6
29/06:28pm 15.0 13.1 13.0 88 1.1 SSW 15 26 8 14 1020.7 1020.7 2.4
29/06:00pm 15.6 13.3 13.1 85 1.4 SSW 17 26 9 14 1020.4 1020.4 1.8
29/05:30pm 15.8 14.5 13.6 87 1.2 SSW 13 19 7 10 1020.0 1020.0 1.6
29/05:00pm 15.8 13.2 13.8 88 1.1 SSW 20 28 11 15 1019.5 1019.5 1.6
29/04:30pm 15.9 12.6 13.9 88 1.1 S 24 37 13 20 1019.0 1019.0 1.6
29/04:00pm 16.0 13.7 14.2 89 1.0 SSW 19 28 10 15 1018.4 1018.4 1.0
29/03:40pm 16.1 13.5 13.9 87 1.2 S 20 28 11 15 1018.2 1018.2 1.0
29/03:30pm 16.2 12.2 14.2 88 1.1 S 28 41 15 22 1018.1 1018.1 0.8
29/03:26pm 16.0 11.9 13.8 87 1.2 S 28 41 15 22 1018.0 1018.0 0.8
29/03:00pm 17.1 14.4 13.4 79 2.1 S 20 37 11 20 1017.7 1017.7 0.4
29/02:30pm 18.2 13.8 12.9 71 3.0 S 28 46 15 25 1017.7 1017.7 0.4
29/02:00pm 17.3 13.0 13.2 77 2.3 S 28 39 15 21 1017.7 1017.7 0.4
29/01:30pm 18.6 14.8 13.5 72 2.9 S 26 41 14 22 1017.6 1017.6 0.2
29/01:00pm 18.1 13.4 13.2 73 2.8 S 30 50 16 27 1017.3 1017.3 0.2
29/12:36pm 19.0 14.3 12.0 64 3.9 S 28 46 15 25 1017.2 1017.2 0.0
29/12:30pm 19.2 15.0 12.5 65 3.7 S 26 37 14 20 1017.3 1017.3 0.0
29/12:00pm 19.5 14.0 11.8 61 4.3 S 32 43 17 23 1017.2 1017.2 0.0
29/11:30am 19.3 15.0 12.1 63 4.0 SSW 26 43 14 23 1017.4 1017.4 0.0
29/11:00am 17.9 14.4 12.1 69 3.2 SSW 22 35 12 19 1017.6 1017.6 0.0
29/10:30am 19.1 17.0 12.4 65 3.7 SSW 15 20 8 11 1017.8 1017.8 0.0
29/10:00am 18.3 15.0 11.6 65 3.7 SSW 20 32 11 17 1017.6 1017.6 0.0
29/09:30am 18.4 15.4 11.9 66 3.6 SSW 19 28 10 15 1017.7 1017.7 0.0
29/09:00am 18.5 15.8 11.6 64 3.8 SSW 17 28 9 15 1017.5 1017.5 1.0
29/08:30am 17.1 15.6 12.0 72 2.8 SW 11 17 6 9 1017.3 1017.3 1.0
29/08:00am 16.3 14.4 11.9 75 2.4 SW 13 19 7 10 1017.1 1017.1 1.0
29/07:30am 15.2 13.7 12.0 81 1.7 WSW 11 17 6 9 1017.0 1017.0 1.0
29/07:00am 13.6 12.8 11.7 88 1.0 WSW 7 9 4 5 1016.7 1016.7 1.0
29/06:30am 12.9 11.6 11.3 90 0.8 WSW 9 13 5 7 1016.2 1016.2 1.0
29/06:00am 12.9 11.2 11.3 90 0.8 SW 11 15 6 8 1015.7 1015.7 1.0
29/05:30am 13.0 11.4 11.4 90 0.8 SW 11 15 6 8 1015.3 1015.3 1.0
29/05:00am 12.5 11.2 11.2 92 0.7 WSW 9 13 5 7 1014.6 1014.6 1.0
29/04:30am 12.2 11.2 10.9 92 0.7 W 7 9 4 5 1014.0 1014.0 1.0
29/04:00am 12.3 11.8 10.7 90 0.8 SW 4 11 2 6 1013.8 1013.8 1.0
29/03:30am 12.4 10.7 11.1 92 0.7 WSW 11 19 6 10 1013.7 1013.7 1.0
29/03:00am 12.4 10.7 11.1 92 0.7 W 11 17 6 9 1014.0 1014.0 1.0
29/02:30am 12.5 11.5 11.1 91 0.7 WSW 7 11 4 6 1014.7 1014.7 0.6
29/02:00am 12.8 11.8 10.9 88 1.0 S 7 9 4 5 1014.7 1014.7 0.2
29/01:30am 12.9 11.4 10.6 86 1.2 WSW 9 13 5 7 1014.4 1014.4 0.0
29/01:00am 13.3 11.2 9.9 80 1.7 SW 11 15 6 8 1014.3 1014.3 0.0
29/12:30am 13.5 11.8 9.7 78 1.9 WSW 9 15 5 8 1014.3 1014.3 0.0
29/12:00am 14.2 11.8 8.8 70 2.7 WSW 11 17 6 9 1014.3 1014.3 0.0
 
Date/Time
EST
Temp
°C
App
Temp
°C
Dew
Point
°C
Rel
Hum
%
Delta-T
°C
Wind Press
QNH
hPa
Press
MSL
hPa
Rain since
9am
mm
Dir  Spd
km/h
Gust
km/h
Spd
kts
Gust
kts
28/11:30pm 14.4 13.9 9.4 72 2.6 SW 2 7 1 4 1014.1 1014.1 0.0
28/11:00pm 14.7 13.2 9.1 69 2.9 NNE 7 9 4 5 1013.7 1013.7 0.0
28/10:30pm 14.2 13.3 10.6 79 1.9 SW 6 15 3 8 1013.5 1013.5 0.0
28/10:00pm 14.6 13.5 10.6 77 2.1 WSW 7 13 4 7 1013.8 1013.8 0.0
28/09:30pm 14.6 13.1 10.4 76 2.2 SW 9 13 5 7 1013.7 1013.7 0.0
28/09:00pm 15.0 13.5 10.4 74 2.4 SW 9 13 5 7 1014.0 1014.0 0.0
28/08:30pm 15.3 12.3 10.7 74 2.4 SSW 17 28 9 15 1014.3 1014.3 0.0
28/08:00pm 16.2 15.2 13.5 84 1.5 WSW 11 15 6 8 1014.1 1014.1 0.0
28/07:30pm 15.9 14.8 13.2 84 1.5 SW 11 13 6 7 1013.4 1013.4 0.0
28/07:00pm 16.3 15.1 12.8 80 1.9 SE 11 13 6 7 1012.8 1012.8 0.0
28/06:30pm 17.0 16.8 13.1 78 2.2 WNW 6 11 3 6 1013.0 1013.0 0.0
28/06:00pm 17.1 16.4 13.2 78 2.2 W 9 13 5 7 1012.7 1012.7 0.0
28/05:30pm 17.2 15.1 13.5 79 2.1 SE 17 22 9 12 1012.1 1012.1 0.0
28/05:00pm 17.4 14.7 12.9 75 2.5 SSE 19 28 10 15 1011.6 1011.6 0.0
28/04:30pm 18.0 15.1 12.9 72 2.9 SE 20 30 11 16 1011.2 1011.2 0.0
28/04:00pm 18.6 14.6 13.0 70 3.2 SE 26 33 14 18 1010.7 1010.7 0.0
28/03:30pm 19.5 15.9 13.0 66 3.7 SE 24 33 13 18 1010.3 1010.3 0.0
28/03:00pm 19.9 16.3 13.1 65 3.9 SE 24 32 13 17 1010.2 1010.2 0.0
28/02:30pm 19.3 16.2 12.1 63 4.0 SE 20 28 11 15 1010.1 1010.1 0.0
28/02:00pm 19.8 16.1 12.8 64 4.0 SE 24 30 13 16 1010.1 1010.1 0.0
28/01:30pm 20.1 16.7 11.1 56 4.9 SE 20 30 11 16 1010.0 1010.0 0.0
28/01:00pm 21.1 19.2 9.0 46 6.4 SSW 9 15 5 8 1010.1 1010.1 0.0

Latest Capital City Observations: Canberra | Sydney | Melbourne | Brisbane | Adelaide | Perth | Hobart | Darwin

Other formats

Comma delimited format used in spreadsheet applications
http://www.bom.gov.au/fwo/IDN60901/IDN60901.94765.axf

JavaScript Object Notation format (JSON) in row-major order
http://www.bom.gov.au/fwo/IDN60901/IDN60901.94765.json

Data quality

Most of these data are generated automatically and are frequently updated. Quality checks on data are not normally performed. It is possible for incorrect values to appear. Refer to information at About Latest Weather Observations and please check the disclaimer before using these data.